Burton, Texas
Current Conditions -  °F | °C
As of 10:15 PM on Friday 19 Dec 2014 (Local Time) from K11R Reporting Station
Overcast Overcast  
Wind Chill: 11°   Ceiling: 800
Heat Index: 11°   Visibility: 7mi
Dew Point: 10°   Wind: 10mph
Humidity: 93%   Direction: 350°N
Pressure: 30.17"   Gusts: NA
Location:  30.18°N, 96.6°W
Report Text: K11R 200415Z AUTO 35009KT 7SM OVC008 11/10 A3017 RMK AO2 T01130102
Loading
Personal Weather Stations






























Interactive Weather Map New forecast layout! Learn more

10-Day Weather Forecast

Advertisements
Track Severe Weather on mobile